CPT weather

Cape Town International Airport
Cape Town, Western Cape, South Africa

Public forecast

Using degrees Celsius for public forecast. Weather courtesy of forecast.io.

METAR (pilot weather report)

Retrieved 2019/04/21 20:00 UTC (24 minutes ago):

FACT 212000Z 15018KT 9999 FEW040 18/10 Q1022 NOSIG

TAF (pilot weather forecast)

Retrieved 2019/04/21 18:00 UTC (2 hours ago):

TAF FACT 211600Z 2118/2224 16020KT CAVOK TX25/2212Z TN15/2205Z TEMPO 2118/2124 15020G30KT